Terminal Aerodrome Forecast
Issued by NWS

Home | Current Version | Previous Version | Text Only | Print | Product List | Glossary On
Versions: 1 2 3 4 5 6 7 8 9 10 11 12 13 14 15 16 17 18 19 20 21 22 23 24 25 26
492
FTAK31 PAFA 202340
TAFAOM
TAF
PAOM 202340Z 2100/2124 03020G30KT P6SM SKC
     FM211100 04018G28KT P6SM SKC
     FM212000 05015G25KT P6SM BKN120=

USA.gov is the U.S. government's official web portal to all federal, state and local government web resources and services.